Pewsey, United Kingdom
Current Conditions -  °F | °C
As of 7:50 PM on Thursday 20 Nov 2014 (Local Time) from EGDM Reporting Station
Haze Haze  
Wind Chill:   Ceiling: 1700
Heat Index:   Visibility: 4mi
Dew Point:   Wind: 8mph
Humidity: 93%   Direction: 70°ENE
Pressure: 30.21"   Gusts: NA
Location:  51.34°N, 1.77°W
Report Text: EGDM 201950Z AUTO 07007KT 7000 HZ OVC017/// 07/06 Q1023
Loading
Personal Weather Stations






























Interactive Weather Map New forecast layout! Learn more

10-Day Weather Forecast

Advertisements
Track Severe Weather on mobile